| time (UTC) | temp C | wind direction | speed KPH | gust KPH | rain 1hr cm | rain 24hr cm | rain mn cm | humidity % | barometer mb |
| 20260507220007 | 26 | 333 | 3.2 | 12.9 | 0.00 | 0.00 | 0.00 | 79 | 1015.8 |
| 20260507214506 | 27 | 290 | 4.8 | 17.7 | 0.00 | 0.00 | 0.00 | 77 | 1015.4 |
| 20260507213010 | 27 | 195 | 6.4 | 17.7 | 0.00 | 0.00 | 0.00 | 76 | 1015.3 |
| 20260507211508 | 27 | 309 | 6.4 | 17.7 | 0.00 | 0.00 | 0.00 | 75 | 1015.2 |
| 20260507210033 | 27 | 258 | 6.4 | 14.5 | 0.00 | 0.00 | 0.00 | 76 | 1015.3 |
| 20260507204511 | 27 | 302 | 6.4 | 12.9 | 0.00 | 0.00 | 0.00 | 75 | 1015.2 |
| 20260507203016 | 27 | 274 | 6.4 | 17.7 | 0.00 | 0.00 | 0.00 | 73 | 1015.2 |
| 20260507201514 | 28 | 216 | 3.2 | 20.9 | 0.00 | 0.00 | 0.00 | 72 | 1015.3 |
| 20260507200015 | 29 | 310 | 8.0 | 27.4 | 0.00 | 0.00 | 0.00 | 70 | 1015.3 |
| 20260507194510 | 29 | 301 | 6.4 | 20.9 | 0.00 | 0.00 | 0.00 | 70 | 1015.2 |
| 20260507193012 | 29 | 321 | 6.4 | 20.9 | 0.00 | 0.00 | 0.00 | 71 | 1015.5 |
| 20260507191524 | 28 | 290 | 8.0 | 20.9 | 0.00 | 0.00 | 0.00 | 71 | 1015.6 |
| 20260507190016 | 30 | 263 | 6.4 | 17.7 | 0.00 | 0.00 | 0.00 | 69 | 1015.7 |
| 20260507184513 | 29 | 281 | 6.4 | 19.3 | 0.00 | 0.00 | 0.00 | 71 | 1015.9 |
| 20260507183006 | 30 | 281 | 11.3 | 24.1 | 0.00 | 0.00 | 0.00 | 69 | 1015.8 |
| 20260507181511 | 30 | 285 | 11.3 | 22.5 | 0.00 | 0.00 | 0.00 | 68 | 1016.0 |
| 20260507173019 | 30 | 333 | 4.8 | 20.9 | 0.00 | 0.00 | 0.00 | 67 | 1016.6 |
| 20260507171514 | 30 | 292 | 3.2 | 14.5 | 0.00 | 0.00 | 0.00 | 73 | 1016.9 |
| 20260507170006 | 30 | 277 | 8.0 | 27.4 | 0.00 | 0.00 | 0.00 | 69 | 1017.1 |
| 20260507164519 | 30 | 214 | 4.8 | 14.5 | 0.00 | 0.00 | 0.00 | 71 | 1017.3 |
| 20260507163016 | 30 | 301 | 4.8 | 14.5 | 0.00 | 0.00 | 0.00 | 71 | 1017.6 |
| 20260507161519 | 29 | 259 | 11.3 | 24.1 | 0.00 | 0.00 | 0.00 | 73 | 1017.8 |
| 20260507160003 | 29 | 277 | 8.0 | 17.7 | 0.00 | 0.00 | 0.00 | 74 | 1017.9 |
| 20260507154512 | 28 | 261 | 6.4 | 19.3 | 0.00 | 0.00 | 0.00 | 73 | 1018.1 |
| 20260507153016 | 28 | 288 | 3.2 | 9.7 | 0.00 | 0.00 | 0.00 | 73 | 1018.1 |
| 20260507151507 | 28 | 233 | 4.8 | 17.7 | 0.00 | 0.00 | 0.00 | 73 | 1018.2 |
| 20260507150003 | 29 | 290 | 8.0 | 14.5 | 0.00 | 0.00 | 0.00 | 70 | 1018.3 |
| 20260507144505 | 28 | 233 | 6.4 | 20.9 | 0.00 | 0.00 | 0.00 | 73 | 1018.3 |
| 20260507143006 | 28 | 240 | 4.8 | 16.1 | 0.00 | 0.00 | 0.00 | 76 | 1018.5 |
| 20260507141523 | 27 | 262 | 12.9 | 24.1 | 0.00 | 0.00 | 0.00 | 77 | 1018.5 |
| 20260507140013 | 27 | 230 | 8.0 | 17.7 | 0.00 | 0.00 | 0.00 | 80 | 1018.8 |
| 20260507134515 | 27 | 217 | 4.8 | 19.3 | 0.00 | 0.00 | 0.00 | 82 | 1018.9 |
| 20260507133012 | 26 | 262 | 4.8 | 14.5 | 0.00 | 0.00 | 0.00 | 84 | 1018.8 |
| 20260507131514 | 27 | 55 | 3.2 | 9.7 | 0.00 | 0.00 | 0.00 | 84 | 1018.7 |
| 20260507130012 | 26 | 8 | 1.6 | 12.9 | 0.00 | 0.00 | 0.00 | 85 | 1018.6 |
| 20260507123026 | 25 | 295 | 1.6 | 11.3 | 0.00 | 0.00 | 0.00 | 89 | 1018.6 |
| 20260507121515 | 26 | 337 | 0.0 | 8.0 | 0.00 | 0.00 | 0.00 | 87 | 1018.2 |
| 20260507120012 | 26 | 229 | 3.2 | 11.3 | 0.00 | 0.00 | 0.00 | 85 | 1018.1 |
| 20260507114517 | 27 | 293 | 1.6 | 4.8 | 0.00 | 0.00 | 0.00 | 85 | 1018.1 |
| 20260507111516 | 25 | 210 | 0.0 | 4.8 | 0.00 | 0.00 | 0.00 | 93 | 1017.8 |
| 20260507110005 | 23 | 37 | 1.6 | 4.8 | 0.00 | 0.00 | 0.00 | 93 | 1017.8 |
| 20260507104520 | 23 | 328 | 0.0 | 6.4 | 0.00 | 0.00 | 0.00 | 94 | 1017.7 |
| 20260507103011 | 23 | 264 | 1.6 | 4.8 | 0.00 | 0.00 | 0.00 | 94 | 1017.5 |
| 20260507101522 | 23 | 273 | 1.6 | 9.7 | 0.00 | 0.00 | 0.00 | 94 | 1017.4 |
| 20260507100006 | 23 | 29 | 3.2 | 6.4 | 0.00 | 0.00 | 0.00 | 95 | 1017.3 |
| 20260507093011 | 23 | 271 | 0.0 | 0.0 | 0.00 | 0.00 | 0.00 | 95 | 1017.4 |
| 20260507091508 | 23 | 265 | 0.0 | 0.0 | 0.00 | 0.00 | 0.00 | 95 | 1017.3 |
| 20260507090016 | 23 | 254 | 0.0 | 1.6 | 0.00 | 0.00 | 0.00 | 95 | 1017.4 |
| 20260507084516 | 23 | 221 | 0.0 | 3.2 | 0.00 | 0.00 | 0.00 | 94 | 1017.4 |
| 20260507083012 | 23 | 293 | 1.6 | 4.8 | 0.00 | 0.00 | 0.00 | 94 | 1017.3 |
| 20260507081529 | 23 | 341 | 1.6 | 8.0 | 0.00 | 0.00 | 0.00 | 94 | 1017.2 |
| 20260507080022 | 23 | 317 | 0.0 | 3.2 | 0.00 | 0.00 | 0.00 | 94 | 1017.1 |
| 20260507073013 | 23 | 294 | 0.0 | 0.0 | 0.00 | 0.00 | 0.00 | 94 | 1017.3 |
| 20260507071514 | 23 | 331 | 0.0 | 0.0 | 0.00 | 0.00 | 0.00 | 94 | 1017.4 |
| 20260507070004 | 23 | 255 | 0.0 | 0.0 | 0.00 | 0.00 | 0.00 | 94 | 1017.4 |
| 20260507064504 | 23 | 222 | 0.0 | 6.4 | 0.00 | 0.00 | 0.00 | 94 | 1017.6 |
| 20260507063004 | 23 | 311 | 3.2 | 8.0 | 0.00 | 0.00 | 0.00 | 94 | 1017.7 |
| 20260507060004 | 23 | 303 | 3.2 | 6.4 | 0.00 | 0.00 | 0.00 | 93 | 1018.0 |
| 20260507054505 | 23 | 316 | 3.2 | 8.0 | 0.00 | 0.00 | 0.00 | 93 | 1018.1 |
| 20260507053004 | 23 | 288 | 1.6 | 8.0 | 0.00 | 0.00 | 0.00 | 93 | 1018.4 |
| 20260507051505 | 23 | 296 | 3.2 | 8.0 | 0.00 | 0.00 | 0.00 | 93 | 1018.7 |
| 20260507044505 | 23 | 314 | 0.0 | 3.2 | 0.00 | 0.00 | 0.00 | 94 | 1019.3 |
| 20260507043005 | 23 | 319 | 0.0 | 1.6 | 0.00 | 0.00 | 0.00 | 94 | 1019.5 |
| 20260507041510 | 23 | 25 | 0.0 | 1.6 | 0.00 | 0.00 | 0.00 | 94 | 1019.6 |
| 20260507040003 | 23 | 235 | 0.0 | 1.6 | 0.00 | 0.00 | 0.00 | 93 | 1019.6 |
| 20260507033012 | 24 | 244 | 0.0 | 3.2 | 0.00 | 0.00 | 0.00 | 92 | 1019.7 |
| 20260507031509 | 24 | 290 | 0.0 | 6.4 | 0.00 | 0.00 | 0.00 | 92 | 1019.8 |
| 20260507030007 | 24 | 309 | 0.0 | 3.2 | 0.00 | 0.00 | 0.00 | 92 | 1019.8 |
| 20260507024506 | 24 | 248 | 0.0 | 4.8 | 0.00 | 0.00 | 0.00 | 92 | 1019.8 |
| 20260507021511 | 24 | 250 | 0.0 | 1.6 | 0.00 | 0.00 | 0.00 | 89 | 1019.7 |
| 20260507020010 | 24 | 20 | 3.2 | 4.8 | 0.00 | 0.00 | 0.00 | 89 | 1019.6 |
| 20260507014523 | 24 | 335 | 3.2 | 6.4 | 0.00 | 0.00 | 0.00 | 88 | 1019.5 |
| 20260507013029 | 24 | 348 | 4.8 | 8.0 | 0.00 | 0.00 | 0.00 | 88 | 1019.5 |
| 20260507010012 | 24 | 341 | 4.8 | 6.4 | 0.00 | 0.00 | 0.00 | 88 | 1019.2 |
| 20260507004507 | 24 | 334 | 1.6 | 4.8 | 0.00 | 0.00 | 0.00 | 88 | 1019.2 |
| 20260507003014 | 24 | 308 | 0.0 | 4.8 | 0.00 | 0.00 | 0.00 | 88 | 1018.9 |
| 20260507001514 | 24 | 341 | 1.6 | 9.7 | 0.00 | 0.00 | 0.00 | 88 | 1018.7 |
| 20260507000020 | 24 | 349 | 1.6 | 9.7 | 0.00 | 0.00 | 0.00 | 87 | 1018.4 |
| 20260506234512 | 25 | 309 | 3.2 | 9.7 | 0.00 | 0.00 | 0.00 | 87 | 1018.3 |
| 20260506233016 | 25 | 297 | 1.6 | 9.7 | 0.00 | 0.00 | 0.00 | 85 | 1017.8 |
| 20260506231514 | 25 | 330 | 4.8 | 9.7 | 0.00 | 0.00 | 0.00 | 85 | 1017.7 |
| 20260506230011 | 25 | 313 | 4.8 | 11.3 | 0.00 | 0.00 | 0.00 | 83 | 1017.5 |
| 20260506223013 | 26 | 307 | 3.2 | 12.9 | 0.00 | 0.00 | 0.00 | 78 | 1017.2 |